createdAt,value
2023-05-06T00:01:29.264Z,97360.16
2023-05-06T00:03:56.550Z,97366.56
2023-05-06T00:06:23.707Z,97397.34
2023-05-06T00:08:50.833Z,97424.69
2023-05-06T00:11:17.906Z,97436.31
2023-05-06T00:13:45.039Z,97456.94
2023-05-06T00:16:12.174Z,97489.75
2023-05-06T00:18:39.336Z,97519.78
2023-05-06T00:21:06.553Z,97535.31
2023-05-06T00:23:33.637Z,97547.69
2023-05-06T00:26:00.726Z,97553.78
2023-05-06T00:28:27.795Z,97599.69
2023-05-06T00:30:55.104Z,97624.66
2023-05-06T00:33:22.203Z,97641.09
2023-05-06T00:35:49.583Z,97645.63
2023-05-06T00:38:16.959Z,97656.41
2023-05-06T00:40:44.173Z,97664.34
2023-05-06T00:43:11.548Z,97681.69
2023-05-06T00:45:38.729Z,97687.91
2023-05-06T00:48:06.682Z,97698.41
2023-05-06T00:50:34.489Z,97695.56
2023-05-06T00:53:03.173Z,97688.84
2023-05-06T00:55:30.664Z,97675.00
2023-05-06T00:57:57.837Z,97662.06
2023-05-06T01:00:25.137Z,97645.84
2023-05-06T01:02:52.462Z,97642.16
2023-05-06T01:05:22.222Z,97649.63
2023-05-06T01:08:00.476Z,97648.31
2023-05-06T01:10:42.323Z,97637.09
2023-05-06T01:13:15.644Z,97632.50
2023-05-06T01:15:46.923Z,97640.75
2023-05-06T01:18:17.081Z,97657.44
2023-05-06T01:20:47.674Z,97675.53
2023-05-06T01:23:14.835Z,97696.28
2023-05-06T01:25:42.043Z,97722.31
2023-05-06T01:28:11.390Z,97733.84
2023-05-06T01:30:40.702Z,97739.25
2023-05-06T01:33:13.925Z,97743.72
2023-05-06T01:35:41.945Z,97733.03
2023-05-06T01:38:27.586Z,97756.75
2023-05-06T01:40:55.634Z,97774.25
2023-05-06T01:43:26.296Z,97796.44
2023-05-06T01:45:54.748Z,97802.06
2023-05-06T01:48:26.326Z,97824.47
2023-05-06T01:50:55.573Z,97835.50
2023-05-06T01:53:22.629Z,97830.03
2023-05-06T01:55:49.666Z,97852.44
2023-05-06T01:58:17.286Z,97868.97
2023-05-06T02:00:44.386Z,97871.97
2023-05-06T02:03:12.464Z,97904.56
2023-05-06T02:05:39.704Z,97915.59
2023-05-06T02:08:07.444Z,97938.25
2023-05-06T02:10:34.607Z,97940.47
2023-05-06T02:13:05.916Z,97981.19
2023-05-06T02:15:33.021Z,98013.56
2023-05-06T02:18:01.521Z,98012.69
2023-05-06T02:20:28.725Z,98033.22
2023-05-06T02:22:56.344Z,98054.72
2023-05-06T02:25:23.465Z,98060.59
2023-05-06T02:27:50.643Z,98070.44
2023-05-06T02:30:17.711Z,98078.97
2023-05-06T02:32:44.884Z,98098.69
2023-05-06T02:35:12.167Z,98101.34
2023-05-06T02:37:39.297Z,98114.22
2023-05-06T02:40:06.765Z,98123.66
2023-05-06T02:42:34.532Z,98146.41
2023-05-06T02:45:04.711Z,98158.41
2023-05-06T02:47:50.889Z,98158.84
2023-05-06T02:50:18.139Z,98182.09
2023-05-06T02:52:45.262Z,98188.38
2023-05-06T02:58:16.424Z,98201.25
2023-05-06T03:00:43.578Z,98236.78
2023-05-06T03:03:10.859Z,98243.66
2023-05-06T03:05:37.873Z,98247.94
2023-05-06T03:08:05.225Z,98257.59
2023-05-06T03:10:33.194Z,98270.41
2023-05-06T03:13:01.281Z,98276.69
2023-05-06T03:15:29.223Z,98299.00
2023-05-06T03:17:56.469Z,98310.47
2023-05-06T03:20:24.907Z,98310.34
2023-05-06T03:22:55.999Z,98339.38
2023-05-06T03:25:24.267Z,98350.16
2023-05-06T03:27:51.945Z,98353.13
2023-05-06T03:30:22.079Z,98377.97
2023-05-06T03:32:51.456Z,98392.06
2023-05-06T03:35:28.349Z,98407.34
2023-05-06T03:37:58.647Z,98415.06
2023-05-06T03:40:30.315Z,98423.53
2023-05-06T03:42:58.422Z,98436.44
2023-05-06T03:45:25.552Z,98457.94
2023-05-06T03:47:52.716Z,98465.00
2023-05-06T03:50:22.368Z,98474.75
2023-05-06T03:52:51.105Z,98474.53
2023-05-06T03:55:19.089Z,98483.88
2023-05-06T03:57:46.258Z,98503.38
2023-05-06T04:00:14.276Z,98510.69
2023-05-06T04:02:46.111Z,98520.78
2023-05-06T04:05:21.182Z,98523.94
2023-05-06T04:07:48.482Z,98550.00
2023-05-06T04:10:15.829Z,98551.19
2023-05-06T04:12:47.310Z,98546.00
2023-05-06T04:15:19.388Z,98554.09
2023-05-06T04:17:46.492Z,98576.28
2023-05-06T04:20:14.410Z,98578.19
2023-05-06T04:22:41.510Z,98581.50
2023-05-06T04:25:09.329Z,98586.47
2023-05-06T04:27:38.184Z,98588.19
2023-05-06T04:30:08.575Z,98606.41
2023-05-06T04:32:37.000Z,98617.31
2023-05-06T04:35:05.389Z,98619.22
2023-05-06T04:37:32.534Z,98614.66
2023-05-06T04:40:09.281Z,98611.78
2023-05-06T04:42:38.886Z,98621.53
2023-05-06T04:45:11.738Z,98626.09
2023-05-06T04:47:40.878Z,98626.75
2023-05-06T04:50:09.542Z,98651.78
2023-05-06T04:52:37.438Z,98650.91
2023-05-06T04:55:05.623Z,98658.19
2023-05-06T04:57:35.149Z,98674.34
2023-05-06T05:00:03.626Z,98684.09
2023-05-06T05:02:32.860Z,98686.34
2023-05-06T05:05:00.079Z,98699.81
2023-05-06T05:07:28.154Z,98701.25
2023-05-06T05:09:55.355Z,98698.75
2023-05-06T05:12:22.662Z,98719.91
2023-05-06T05:14:51.588Z,98728.81
2023-05-06T05:17:18.642Z,98739.81
2023-05-06T05:19:47.964Z,98749.38
2023-05-06T05:22:16.499Z,98771.34
2023-05-06T05:24:43.615Z,98796.44
2023-05-06T05:27:12.068Z,98804.53
2023-05-06T05:29:40.068Z,98793.72
2023-05-06T05:32:08.819Z,98809.06
2023-05-06T05:34:36.190Z,98804.06
2023-05-06T05:37:03.516Z,98806.13
2023-05-06T05:39:31.167Z,98807.13
2023-05-06T05:41:58.756Z,98816.47
2023-05-06T05:44:26.236Z,98826.88
2023-05-06T05:46:54.091Z,98846.38
2023-05-06T05:49:21.727Z,98851.13
2023-05-06T05:51:51.803Z,98852.78
2023-05-06T05:54:20.903Z,98859.66
2023-05-06T05:56:48.014Z,98860.03
2023-05-06T05:59:16.082Z,98863.34
2023-05-06T06:01:45.229Z,98868.75
2023-05-06T06:04:12.411Z,98894.03
2023-05-06T06:06:39.608Z,98904.59
2023-05-06T06:09:07.648Z,98917.69
2023-05-06T06:11:36.643Z,98927.22
2023-05-06T06:14:03.931Z,98933.66
2023-05-06T06:16:31.437Z,98946.72
2023-05-06T06:18:58.650Z,98960.41
2023-05-06T06:21:25.886Z,98978.03
2023-05-06T06:23:53.561Z,98989.84
2023-05-06T06:26:21.642Z,99009.13
2023-05-06T06:28:48.707Z,99037.94
2023-05-06T06:31:15.943Z,99027.56
2023-05-06T06:33:43.249Z,99030.28
2023-05-06T06:36:11.366Z,99050.13
2023-05-06T06:38:38.541Z,99034.81
2023-05-06T06:41:05.832Z,99032.94
2023-05-06T06:43:33.010Z,99027.91
2023-05-06T06:46:02.108Z,99003.84
2023-05-06T06:48:29.356Z,99004.88
2023-05-06T06:50:56.429Z,99017.50
2023-05-06T06:53:23.602Z,99006.31
2023-05-06T06:55:50.692Z,98995.53
2023-05-06T06:58:17.743Z,99030.03
2023-05-06T07:00:44.819Z,99014.88
2023-05-06T07:03:15.808Z,99025.50
2023-05-06T07:05:42.953Z,99022.94
2023-05-06T07:08:10.064Z,99030.22
2023-05-06T07:10:37.681Z,99034.09
2023-05-06T07:13:04.803Z,99032.22
2023-05-06T07:15:31.932Z,99033.03
2023-05-06T07:17:58.989Z,99027.88
2023-05-06T07:20:26.261Z,99060.59
2023-05-06T07:22:53.297Z,99083.63
2023-05-06T07:25:20.465Z,99072.78
2023-05-06T07:27:47.617Z,99108.38
2023-05-06T07:30:15.696Z,99088.50
2023-05-06T07:32:43.510Z,99057.91
2023-05-06T07:35:10.862Z,99057.47
2023-05-06T07:37:38.171Z,99046.16
2023-05-06T07:40:05.595Z,99077.56
2023-05-06T07:42:32.663Z,99120.25
2023-05-06T07:44:59.788Z,99100.69
2023-05-06T07:47:28.234Z,99124.47
2023-05-06T07:49:56.169Z,99117.06
2023-05-06T07:52:23.940Z,99100.09
2023-05-06T07:54:51.004Z,99079.88
2023-05-06T07:57:18.112Z,99019.97
2023-05-06T07:59:48.885Z,98999.03
2023-05-06T08:02:16.357Z,98943.75
2023-05-06T08:04:43.713Z,98889.53
2023-05-06T08:07:11.065Z,98914.66
2023-05-06T08:09:38.222Z,98941.03
2023-05-06T08:12:05.835Z,98883.84
2023-05-06T08:14:33.080Z,98791.88
2023-05-06T08:17:00.250Z,98753.03
2023-05-06T08:19:27.340Z,98765.28
2023-05-06T08:21:54.503Z,98732.69
2023-05-06T08:24:21.639Z,98670.03
2023-05-06T08:26:48.875Z,98634.97
2023-05-06T08:29:15.931Z,98625.75
2023-05-06T08:31:43.330Z,98568.97
2023-05-06T08:34:10.568Z,98487.56
2023-05-06T08:36:37.941Z,98380.94
2023-05-06T08:39:05.994Z,98326.06
2023-05-06T08:41:34.397Z,98253.41
2023-05-06T08:44:01.959Z,98206.66
2023-05-06T08:46:31.142Z,98174.31
2023-05-06T08:48:58.865Z,98167.84
2023-05-06T08:51:28.793Z,98179.75
2023-05-06T08:53:59.948Z,98128.50
2023-05-06T08:56:29.651Z,98003.38
2023-05-06T08:58:58.261Z,97866.06
2023-05-06T09:01:27.714Z,97818.94
2023-05-06T09:03:58.171Z,97789.84
2023-05-06T09:06:25.534Z,97781.13
2023-05-06T09:08:52.770Z,97747.03
2023-05-06T09:11:27.895Z,97673.91
2023-05-06T09:14:11.165Z,97609.34
2023-05-06T09:16:38.798Z,97620.06
2023-05-06T09:19:06.515Z,97638.97
2023-05-06T09:21:37.349Z,97635.72
2023-05-06T09:24:06.005Z,97505.72
2023-05-06T09:26:34.033Z,97369.16
2023-05-06T09:29:01.519Z,97298.78
2023-05-06T09:31:29.151Z,97327.66
2023-05-06T09:33:57.206Z,97326.31
2023-05-06T09:36:25.780Z,97234.75
2023-05-06T09:38:54.104Z,97267.03
2023-05-06T09:41:22.813Z,97164.75
2023-05-06T09:43:51.050Z,97019.56
2023-05-06T09:46:18.912Z,96915.50
2023-05-06T09:48:46.813Z,96863.31
2023-05-06T09:51:13.970Z,96852.19
2023-05-06T09:53:41.641Z,96795.25
2023-05-06T09:56:08.942Z,96823.41
2023-05-06T09:58:37.136Z,96796.84
2023-05-06T10:01:06.899Z,96687.16
2023-05-06T10:03:35.220Z,96716.84
2023-05-06T10:06:03.388Z,96722.09
2023-05-06T10:08:32.761Z,96719.59
2023-05-06T10:11:00.793Z,96710.84
2023-05-06T10:13:28.288Z,96678.44
2023-05-06T10:15:55.987Z,96633.97
2023-05-06T10:18:23.632Z,96603.03
2023-05-06T10:20:53.591Z,96534.09
2023-05-06T10:23:23.685Z,96494.41
2023-05-06T10:25:52.672Z,96459.56
2023-05-06T10:28:31.627Z,96443.09
2023-05-06T10:30:59.536Z,96409.03
2023-05-06T10:33:27.687Z,96350.41
2023-05-06T10:35:54.782Z,96251.22
2023-05-06T10:38:29.721Z,96233.41
2023-05-06T10:40:57.164Z,96249.28
2023-05-06T10:43:34.459Z,96227.09
2023-05-06T10:46:02.770Z,96262.59
2023-05-06T10:48:30.887Z,96219.69
2023-05-06T10:51:16.469Z,96247.28
2023-05-06T10:54:03.177Z,96115.94
2023-05-06T10:56:33.289Z,96002.31
2023-05-06T10:59:10.517Z,95945.19
2023-05-06T11:01:38.645Z,95919.25
2023-05-06T11:04:08.929Z,95865.88
2023-05-06T11:06:43.005Z,95813.59
2023-05-06T11:09:23.490Z,95834.03
2023-05-06T11:11:52.223Z,95850.03
2023-05-06T11:14:30.143Z,95862.03
2023-05-06T11:17:01.421Z,95827.41
2023-05-06T11:19:32.510Z,95856.31
2023-05-06T11:22:00.499Z,95854.97
2023-05-06T11:24:28.751Z,95864.94
2023-05-06T11:26:58.051Z,95844.16
2023-05-06T11:29:25.793Z,95799.22
2023-05-06T11:31:54.076Z,95775.22
2023-05-06T11:34:26.073Z,95813.66
2023-05-06T11:36:58.573Z,95774.66
2023-05-06T11:39:30.351Z,95803.44
2023-05-06T11:41:58.690Z,95829.56
2023-05-06T11:44:29.892Z,95813.69
2023-05-06T11:46:58.140Z,95721.59
2023-05-06T11:49:26.707Z,95710.69
2023-05-06T11:51:54.801Z,95729.22
2023-05-06T11:54:22.992Z,95750.13
2023-05-06T11:56:53.724Z,95723.94
2023-05-06T11:59:28.317Z,95724.13
2023-05-06T12:01:56.941Z,95702.31
2023-05-06T12:04:24.178Z,95701.84
2023-05-06T12:06:51.461Z,95701.06
2023-05-06T12:09:18.649Z,95636.56
2023-05-06T12:11:45.860Z,95665.75
2023-05-06T12:14:13.030Z,95699.19
2023-05-06T12:16:41.358Z,95681.22
2023-05-06T12:19:08.589Z,95661.56
2023-05-06T12:21:39.189Z,95677.78
2023-05-06T12:24:06.533Z,95641.53
2023-05-06T12:26:43.297Z,95544.94
2023-05-06T12:29:11.802Z,95473.59
2023-05-06T12:31:39.387Z,95457.13
2023-05-06T12:34:06.493Z,95400.78
2023-05-06T12:36:39.168Z,95379.84
2023-05-06T12:39:06.449Z,95376.19
2023-05-06T12:41:37.960Z,95379.22
2023-05-06T12:44:25.717Z,95371.03
2023-05-06T12:46:53.136Z,95356.25
2023-05-06T12:49:20.373Z,95398.31
2023-05-06T12:51:47.810Z,95359.91
2023-05-06T12:54:30.689Z,95342.25
2023-05-06T12:56:57.893Z,95350.56
2023-05-06T12:59:26.673Z,95355.16
2023-05-06T13:01:53.758Z,95395.22
2023-05-06T13:04:21.589Z,95425.16
2023-05-06T13:06:49.688Z,95426.75
2023-05-06T13:09:17.592Z,95409.00
2023-05-06T13:11:44.804Z,95429.13
2023-05-06T13:14:11.892Z,95411.28
2023-05-06T13:16:39.172Z,95405.13
2023-05-06T13:19:06.361Z,95395.72
2023-05-06T13:21:33.818Z,95397.31
2023-05-06T13:24:00.990Z,95396.50
2023-05-06T13:26:28.180Z,95389.22
2023-05-06T13:28:55.290Z,95376.03
2023-05-06T13:31:23.190Z,95406.53
2023-05-06T13:33:51.551Z,95400.28
2023-05-06T13:36:18.584Z,95384.13
2023-05-06T13:38:45.757Z,95351.25
2023-05-06T13:41:12.808Z,95305.91
2023-05-06T13:43:39.910Z,95312.78
2023-05-06T13:46:08.270Z,95275.03
2023-05-06T13:48:35.459Z,95294.38
2023-05-06T13:51:02.616Z,95270.94
2023-05-06T13:53:30.026Z,95245.25
2023-05-06T13:55:57.108Z,95222.31
2023-05-06T13:58:24.241Z,95213.13
2023-05-06T14:00:51.342Z,95262.59
2023-05-06T14:03:18.402Z,95287.34
2023-05-06T14:05:45.572Z,95241.81
2023-05-06T14:08:12.688Z,95240.81
2023-05-06T14:10:39.763Z,95203.97
2023-05-06T14:13:07.425Z,95178.41
2023-05-06T14:15:34.701Z,95185.59
2023-05-06T14:18:01.855Z,95149.59
2023-05-06T14:20:28.983Z,95153.91
2023-05-06T14:22:56.162Z,95173.22
2023-05-06T14:25:26.881Z,95140.28
2023-05-06T14:27:54.373Z,95119.84
2023-05-06T14:30:21.764Z,95134.38
2023-05-06T14:32:48.956Z,95127.75
2023-05-06T14:35:16.200Z,95100.56
2023-05-06T14:37:43.262Z,95096.63
2023-05-06T14:40:10.426Z,95112.00
2023-05-06T14:42:37.555Z,95075.88
2023-05-06T14:45:05.054Z,95065.41
2023-05-06T14:47:32.334Z,95056.72
2023-05-06T14:49:59.505Z,95018.38
2023-05-06T14:52:26.990Z,95013.97
2023-05-06T14:54:54.040Z,95021.06
2023-05-06T14:57:21.743Z,95044.63
2023-05-06T14:59:49.844Z,95072.59
2023-05-06T15:02:17.097Z,95076.13
2023-05-06T15:04:44.354Z,95091.81
2023-05-06T15:07:11.665Z,95055.94
2023-05-06T15:09:43.965Z,95025.53
2023-05-06T15:12:11.407Z,95006.81
2023-05-06T15:14:38.955Z,95026.56
2023-05-06T15:17:06.145Z,95021.38
2023-05-06T15:19:33.858Z,95021.47
2023-05-06T15:22:01.027Z,95007.69
2023-05-06T15:24:28.131Z,95001.94
2023-05-06T15:26:55.267Z,95003.41
2023-05-06T15:29:22.348Z,94995.72
2023-05-06T15:31:49.655Z,95007.03
2023-05-06T15:34:16.774Z,95016.69
2023-05-06T15:36:44.391Z,95006.00
2023-05-06T15:39:12.569Z,95007.28
2023-05-06T15:41:39.695Z,94997.78
2023-05-06T15:44:07.113Z,95006.47
2023-05-06T15:46:34.197Z,95000.34
2023-05-06T15:51:31.345Z,94984.41
2023-05-06T15:53:58.497Z,94975.13
2023-05-06T15:56:27.073Z,94958.19
2023-05-06T15:58:54.909Z,94954.91
2023-05-06T16:01:33.581Z,94951.69
2023-05-06T16:04:09.563Z,94965.69
2023-05-06T16:06:36.782Z,94981.09
2023-05-06T16:09:03.908Z,94983.69
2023-05-06T16:11:31.010Z,94979.44
2023-05-06T16:13:58.183Z,94970.44
2023-05-06T16:16:25.294Z,94963.72
2023-05-06T16:18:52.395Z,94957.53
2023-05-06T16:21:19.455Z,94960.44
2023-05-06T16:23:46.658Z,94969.53
2023-05-06T16:26:14.723Z,94972.19
2023-05-06T16:28:41.868Z,94983.28
2023-05-06T16:31:09.016Z,94982.03
2023-05-06T16:33:36.174Z,94973.78
2023-05-06T16:36:03.318Z,94976.41
2023-05-06T16:38:30.423Z,94988.41
2023-05-06T16:40:57.814Z,94969.84
2023-05-06T16:43:25.281Z,94968.13
2023-05-06T16:45:52.431Z,94974.13
2023-05-06T16:48:20.010Z,94982.06
2023-05-06T16:50:48.202Z,94997.19
2023-05-06T16:53:17.230Z,94997.94
2023-05-06T16:55:48.672Z,95005.22
2023-05-06T16:58:15.884Z,95015.72
2023-05-06T17:00:43.211Z,95008.25
2023-05-06T17:03:10.641Z,95008.13
2023-05-06T17:05:37.803Z,94995.22
2023-05-06T17:08:05.526Z,94996.13
2023-05-06T17:10:32.660Z,95005.66
2023-05-06T17:12:59.852Z,95005.66
2023-05-06T17:15:26.888Z,95019.56
2023-05-06T17:17:54.076Z,95010.06
2023-05-06T17:20:21.300Z,95012.19
2023-05-06T17:22:49.075Z,95007.97
2023-05-06T17:25:16.289Z,95009.31
2023-05-06T17:27:44.794Z,94996.28
2023-05-06T17:30:12.482Z,95004.53
2023-05-06T17:32:40.214Z,95008.25
2023-05-06T17:35:07.675Z,94996.34
2023-05-06T17:37:34.934Z,94990.25
2023-05-06T17:40:02.906Z,95003.25
2023-05-06T17:42:30.851Z,95005.28
2023-05-06T17:44:57.995Z,95005.03
2023-05-06T17:47:25.199Z,95005.69
2023-05-06T17:49:52.850Z,95001.84
2023-05-06T17:52:20.305Z,95006.47
2023-05-06T17:55:14.962Z,95018.34
2023-05-06T17:57:37.653Z,95038.41
2023-05-06T18:00:05.554Z,95044.09
2023-05-06T18:02:39.106Z,95052.19
2023-05-06T18:05:06.660Z,95070.94
2023-05-06T18:07:35.531Z,95095.69
2023-05-06T18:10:02.644Z,95105.22
2023-05-06T18:12:30.522Z,95109.13
2023-05-06T18:14:57.920Z,95120.63
2023-05-06T18:17:25.704Z,95123.63
2023-05-06T18:19:52.862Z,95118.25
2023-05-06T18:22:19.906Z,95132.09
2023-05-06T18:24:47.029Z,95134.59
2023-05-06T18:27:14.141Z,95114.28
2023-05-06T18:29:41.380Z,95099.59
2023-05-06T18:32:08.745Z,95077.75
2023-05-06T18:34:35.931Z,95070.59
2023-05-06T18:37:03.732Z,95070.00
2023-05-06T18:39:30.819Z,95067.97
2023-05-06T18:41:57.873Z,95083.84
2023-05-06T18:44:24.950Z,95091.97
2023-05-06T18:46:52.032Z,95093.59
2023-05-06T18:49:19.164Z,95117.72
2023-05-06T18:51:46.207Z,95120.56
2023-05-06T18:54:14.219Z,95120.44
2023-05-06T18:56:43.601Z,95132.72
2023-05-06T18:59:11.603Z,95144.53
2023-05-06T19:01:38.990Z,95153.63
2023-05-06T19:04:06.525Z,95152.66
2023-05-06T19:06:34.586Z,95154.44
2023-05-06T19:09:01.679Z,95152.81
2023-05-06T19:11:28.798Z,95159.31
2023-05-06T19:13:55.852Z,95156.47
2023-05-06T19:16:22.958Z,95185.31
2023-05-06T19:18:50.116Z,95233.31
2023-05-06T19:21:18.562Z,95265.00
2023-05-06T19:23:45.653Z,95281.53
2023-05-06T19:26:13.549Z,95305.91
2023-05-06T19:28:40.661Z,95321.16
2023-05-06T19:31:09.521Z,95325.63
2023-05-06T19:33:37.172Z,95368.13
2023-05-06T19:36:04.505Z,95368.16
2023-05-06T19:38:31.623Z,95362.06
2023-05-06T19:40:58.700Z,95367.41
2023-05-06T19:43:25.842Z,95358.34
2023-05-06T19:45:52.914Z,95358.50
2023-05-06T19:48:20.623Z,95413.16
2023-05-06T19:50:47.759Z,95448.00
2023-05-06T19:53:15.568Z,95473.09
2023-05-06T19:55:42.591Z,95502.81
2023-05-06T19:58:11.111Z,95527.22
2023-05-06T20:00:38.684Z,95554.13
2023-05-06T20:03:06.037Z,95573.03
2023-05-06T20:05:33.360Z,95586.03
2023-05-06T20:08:00.738Z,95598.03
2023-05-06T20:10:28.037Z,95618.63
2023-05-06T20:12:57.367Z,95629.00
2023-05-06T20:15:25.101Z,95664.53
2023-05-06T20:17:52.289Z,95689.16
2023-05-06T20:20:19.531Z,95719.84
2023-05-06T20:22:46.831Z,95737.88
2023-05-06T20:25:18.821Z,95772.25
2023-05-06T20:27:46.320Z,95793.00
2023-05-06T20:30:13.556Z,95821.78
2023-05-06T20:32:40.963Z,95837.56
2023-05-06T20:35:08.833Z,95816.06
2023-05-06T20:37:36.268Z,95802.59
2023-05-06T20:40:04.979Z,95805.16
2023-05-06T20:42:32.104Z,95796.94
2023-05-06T20:44:59.699Z,95786.06
2023-05-06T20:47:27.078Z,95766.44
2023-05-06T20:49:54.459Z,95747.38
2023-05-06T20:52:21.844Z,95745.69
2023-05-06T20:54:48.974Z,95759.03
2023-05-06T20:57:16.532Z,95752.38
2023-05-06T20:59:43.745Z,95757.22
2023-05-06T21:02:10.920Z,95763.13
2023-05-06T21:04:38.091Z,95751.81
2023-05-06T21:07:05.251Z,95750.84
2023-05-06T21:09:34.480Z,95751.16
2023-05-06T21:12:01.553Z,95748.47
2023-05-06T21:14:28.861Z,95744.59
2023-05-06T21:16:55.905Z,95751.63
2023-05-06T21:19:22.950Z,95808.44
2023-05-06T21:21:49.986Z,95887.50
2023-05-06T21:24:17.079Z,95936.66
2023-05-06T21:26:44.195Z,95913.28
2023-05-06T21:29:11.483Z,95936.03
2023-05-06T21:31:38.801Z,95936.47
2023-05-06T21:34:07.963Z,95973.81
2023-05-06T21:36:35.559Z,96023.84
2023-05-06T21:39:13.306Z,96025.16
2023-05-06T21:41:40.571Z,96038.09
2023-05-06T21:44:08.333Z,96050.06
2023-05-06T21:46:36.769Z,96072.69
2023-05-06T21:49:03.872Z,96094.28
2023-05-06T21:51:34.861Z,96117.47
2023-05-06T21:54:02.225Z,96137.97
2023-05-06T21:56:29.311Z,96168.16
2023-05-06T21:58:56.356Z,96190.75
2023-05-06T22:01:26.058Z,96203.16
2023-05-06T22:03:54.255Z,96232.47
2023-05-06T22:06:22.341Z,96229.75
2023-05-06T22:08:49.495Z,96217.66
2023-05-06T22:11:16.926Z,96205.28
2023-05-06T22:13:44.053Z,96203.09
2023-05-06T22:16:11.233Z,96196.59
2023-05-06T22:18:41.384Z,96185.31
2023-05-06T22:21:09.652Z,96190.19
2023-05-06T22:23:37.682Z,96216.31
2023-05-06T22:26:04.847Z,96224.66
2023-05-06T22:28:32.036Z,96219.78
2023-05-06T22:30:59.067Z,96209.56
2023-05-06T22:33:26.552Z,96206.03
2023-05-06T22:35:53.727Z,96205.22
2023-05-06T22:38:21.031Z,96198.28
2023-05-06T22:40:48.085Z,96212.25
2023-05-06T22:43:15.179Z,96228.94
2023-05-06T22:45:42.268Z,96209.28
2023-05-06T22:48:09.394Z,96210.09
2023-05-06T22:50:38.025Z,96222.50
2023-05-06T22:53:14.564Z,96223.03
2023-05-06T22:55:42.712Z,96217.66
2023-05-06T22:58:09.978Z,96222.78
2023-05-06T23:00:37.213Z,96237.63
2023-05-06T23:03:05.798Z,96232.22
2023-05-06T23:05:32.986Z,96226.31
2023-05-06T23:08:00.028Z,96242.19
2023-05-06T23:10:27.973Z,96244.63
2023-05-06T23:12:55.078Z,96244.34
2023-05-06T23:15:22.978Z,96258.91
2023-05-06T23:17:50.134Z,96255.13
2023-05-06T23:20:17.313Z,96248.66
2023-05-06T23:22:44.404Z,96247.06
2023-05-06T23:25:12.018Z,96263.75
2023-05-06T23:27:39.751Z,96261.31
2023-05-06T23:30:07.811Z,96265.38
2023-05-06T23:32:35.099Z,96266.44
2023-05-06T23:35:02.831Z,96276.41
2023-05-06T23:37:30.268Z,96275.06
2023-05-06T23:40:00.514Z,96275.88
2023-05-06T23:42:27.709Z,96279.63
2023-05-06T23:44:55.082Z,96294.72
2023-05-06T23:47:22.136Z,96296.34
2023-05-06T23:49:49.271Z,96308.72
2023-05-06T23:52:16.270Z,96307.13
2023-05-06T23:54:43.396Z,96319.50
2023-05-06T23:57:10.561Z,96342.16
2023-05-06T23:59:37.629Z,96366.13
